sensor_id;sensor_type;location;lat;lon;timestamp;P1;durP1;ratioP1;P2;durP2;ratioP2
28519;SDS011;15732;48.534;20.382;2023-02-28T00:01:31;2.53;;;1.55;;
28519;SDS011;15732;48.534;20.382;2023-02-28T00:03:58;1.25;;;0.88;;
28519;SDS011;15732;48.534;20.382;2023-02-28T00:06:25;3.97;;;1.35;;
28519;SDS011;15732;48.534;20.382;2023-02-28T00:08:56;4.13;;;1.67;;
28519;SDS011;15732;48.534;20.382;2023-02-28T00:11:23;2.67;;;1.13;;
28519;SDS011;15732;48.534;20.382;2023-02-28T00:13:51;5.07;;;1.55;;
28519;SDS011;15732;48.534;20.382;2023-02-28T00:16:22;3.83;;;1.50;;
28519;SDS011;15732;48.534;20.382;2023-02-28T00:18:53;2.78;;;1.67;;
28519;SDS011;15732;48.534;20.382;2023-02-28T00:21:21;4.55;;;1.70;;
28519;SDS011;15732;48.534;20.382;2023-02-28T00:23:52;1.52;;;0.90;;
28519;SDS011;15732;48.534;20.382;2023-02-28T00:26:20;3.03;;;1.40;;
28519;SDS011;15732;48.534;20.382;2023-02-28T00:28:47;2.50;;;1.38;;
28519;SDS011;15732;48.534;20.382;2023-02-28T00:31:18;3.50;;;1.33;;
28519;SDS011;15732;48.534;20.382;2023-02-28T00:33:45;2.35;;;1.45;;
28519;SDS011;15732;48.534;20.382;2023-02-28T00:36:13;2.65;;;1.65;;
28519;SDS011;15732;48.534;20.382;2023-02-28T00:38:40;2.00;;;1.15;;
28519;SDS011;15732;48.534;20.382;2023-02-28T00:41:11;2.38;;;1.02;;
28519;SDS011;15732;48.534;20.382;2023-02-28T00:43:43;6.45;;;1.27;;
28519;SDS011;15732;48.534;20.382;2023-02-28T00:46:14;3.97;;;1.83;;
28519;SDS011;15732;48.534;20.382;2023-02-28T00:48:41;4.38;;;1.52;;
28519;SDS011;15732;48.534;20.382;2023-02-28T00:51:09;2.85;;;1.63;;
28519;SDS011;15732;48.534;20.382;2023-02-28T00:53:36;2.05;;;1.33;;
28519;SDS011;15732;48.534;20.382;2023-02-28T00:56:03;4.28;;;1.92;;
28519;SDS011;15732;48.534;20.382;2023-02-28T01:00:59;9.18;;;1.65;;
28519;SDS011;15732;48.534;20.382;2023-02-28T01:03:26;3.45;;;1.52;;
28519;SDS011;15732;48.534;20.382;2023-02-28T01:05:53;7.75;;;1.85;;
28519;SDS011;15732;48.534;20.382;2023-02-28T01:08:25;3.92;;;1.70;;
28519;SDS011;15732;48.534;20.382;2023-02-28T01:10:52;2.72;;;1.20;;
28519;SDS011;15732;48.534;20.382;2023-02-28T01:13:20;4.05;;;2.03;;
28519;SDS011;15732;48.534;20.382;2023-02-28T01:15:49;3.08;;;1.42;;
28519;SDS011;15732;48.534;20.382;2023-02-28T01:18:18;5.30;;;1.58;;
28519;SDS011;15732;48.534;20.382;2023-02-28T01:20:51;3.85;;;1.98;;
28519;SDS011;15732;48.534;20.382;2023-02-28T01:23:19;3.63;;;1.50;;
28519;SDS011;15732;48.534;20.382;2023-02-28T01:25:47;7.05;;;1.60;;
28519;SDS011;15732;48.534;20.382;2023-02-28T01:28:15;3.63;;;1.33;;
28519;SDS011;15732;48.534;20.382;2023-02-28T01:30:42;1.23;;;0.90;;
28519;SDS011;15732;48.534;20.382;2023-02-28T01:33:17;2.15;;;1.00;;
28519;SDS011;15732;48.534;20.382;2023-02-28T01:35:44;3.50;;;1.45;;
28519;SDS011;15732;48.534;20.382;2023-02-28T01:38:11;4.88;;;1.92;;
28519;SDS011;15732;48.534;20.382;2023-02-28T01:40:38;2.58;;;1.45;;
28519;SDS011;15732;48.534;20.382;2023-02-28T01:43:20;2.28;;;1.27;;
28519;SDS011;15732;48.534;20.382;2023-02-28T01:45:49;3.40;;;1.25;;
28519;SDS011;15732;48.534;20.382;2023-02-28T01:48:17;2.45;;;1.27;;
28519;SDS011;15732;48.534;20.382;2023-02-28T01:50:47;1.13;;;0.73;;
28519;SDS011;15732;48.534;20.382;2023-02-28T01:53:21;5.72;;;1.67;;
28519;SDS011;15732;48.534;20.382;2023-02-28T01:55:53;3.08;;;1.45;;
28519;SDS011;15732;48.534;20.382;2023-02-28T01:58:21;2.95;;;1.10;;
28519;SDS011;15732;48.534;20.382;2023-02-28T02:00:48;6.32;;;1.83;;
28519;SDS011;15732;48.534;20.382;2023-02-28T02:03:17;2.30;;;1.25;;
28519;SDS011;15732;48.534;20.382;2023-02-28T02:05:45;2.33;;;1.30;;
28519;SDS011;15732;48.534;20.382;2023-02-28T02:08:15;0.88;;;0.80;;
28519;SDS011;15732;48.534;20.382;2023-02-28T02:10:46;2.00;;;1.00;;
28519;SDS011;15732;48.534;20.382;2023-02-28T02:16:17;2.05;;;1.02;;
28519;SDS011;15732;48.534;20.382;2023-02-28T02:19:21;2.60;;;1.30;;
28519;SDS011;15732;48.534;20.382;2023-02-28T02:30:40;2.45;;;1.30;;
28519;SDS011;15732;48.534;20.382;2023-02-28T02:38:29;1.35;;;0.85;;
28519;SDS011;15732;48.534;20.382;2023-02-28T02:41:06;2.45;;;1.50;;
28519;SDS011;15732;48.534;20.382;2023-02-28T02:43:53;2.83;;;1.30;;
28519;SDS011;15732;48.534;20.382;2023-02-28T02:49:04;2.60;;;1.23;;
28519;SDS011;15732;48.534;20.382;2023-02-28T02:51:35;5.22;;;1.30;;
28519;SDS011;15732;48.534;20.382;2023-02-28T02:54:15;3.60;;;1.45;;
28519;SDS011;15732;48.534;20.382;2023-02-28T02:56:47;3.78;;;1.38;;
28519;SDS011;15732;48.534;20.382;2023-02-28T02:59:20;3.03;;;1.00;;
28519;SDS011;15732;48.534;20.382;2023-02-28T03:01:50;3.17;;;1.42;;
28519;SDS011;15732;48.534;20.382;2023-02-28T03:04:24;2.17;;;1.52;;
28519;SDS011;15732;48.534;20.382;2023-02-28T03:07:00;3.35;;;1.88;;
28519;SDS011;15732;48.534;20.382;2023-02-28T03:09:27;3.42;;;1.40;;
28519;SDS011;15732;48.534;20.382;2023-02-28T03:11:55;1.90;;;1.10;;
28519;SDS011;15732;48.534;20.382;2023-02-28T03:24:56;2.42;;;1.20;;
28519;SDS011;15732;48.534;20.382;2023-02-28T03:27:40;5.47;;;1.33;;
28519;SDS011;15732;48.534;20.382;2023-02-28T03:30:19;6.32;;;1.65;;
28519;SDS011;15732;48.534;20.382;2023-02-28T03:35:24;3.03;;;1.33;;
28519;SDS011;15732;48.534;20.382;2023-02-28T03:38:01;2.13;;;1.10;;
28519;SDS011;15732;48.534;20.382;2023-02-28T03:41:06;3.70;;;1.50;;
28519;SDS011;15732;48.534;20.382;2023-02-28T03:43:40;4.72;;;1.52;;
28519;SDS011;15732;48.534;20.382;2023-02-28T03:46:16;4.10;;;1.42;;
28519;SDS011;15732;48.534;20.382;2023-02-28T03:48:54;8.25;;;2.95;;
28519;SDS011;15732;48.534;20.382;2023-02-28T03:51:34;4.60;;;1.48;;
28519;SDS011;15732;48.534;20.382;2023-02-28T03:54:05;4.05;;;2.10;;
28519;SDS011;15732;48.534;20.382;2023-02-28T03:59:32;4.95;;;1.45;;
28519;SDS011;15732;48.534;20.382;2023-02-28T04:02:04;2.17;;;1.05;;
28519;SDS011;15732;48.534;20.382;2023-02-28T04:04:31;3.28;;;1.35;;
28519;SDS011;15732;48.534;20.382;2023-02-28T04:07:05;2.47;;;1.20;;
28519;SDS011;15732;48.534;20.382;2023-02-28T04:09:37;2.63;;;1.33;;
28519;SDS011;15732;48.534;20.382;2023-02-28T04:12:08;3.70;;;1.90;;
28519;SDS011;15732;48.534;20.382;2023-02-28T04:14:36;4.28;;;1.30;;
28519;SDS011;15732;48.534;20.382;2023-02-28T04:17:02;3.00;;;1.30;;
28519;SDS011;15732;48.534;20.382;2023-02-28T04:19:30;5.35;;;1.55;;
28519;SDS011;15732;48.534;20.382;2023-02-28T04:22:01;3.17;;;1.83;;
28519;SDS011;15732;48.534;20.382;2023-02-28T04:24:32;3.33;;;1.30;;
28519;SDS011;15732;48.534;20.382;2023-02-28T04:27:00;4.75;;;2.25;;
28519;SDS011;15732;48.534;20.382;2023-02-28T04:29:31;6.82;;;1.75;;
28519;SDS011;15732;48.534;20.382;2023-02-28T04:32:01;5.07;;;2.47;;
28519;SDS011;15732;48.534;20.382;2023-02-28T04:34:30;3.03;;;1.80;;
28519;SDS011;15732;48.534;20.382;2023-02-28T04:36:58;3.10;;;1.80;;
28519;SDS011;15732;48.534;20.382;2023-02-28T04:39:26;3.88;;;1.20;;
28519;SDS011;15732;48.534;20.382;2023-02-28T04:41:53;4.57;;;2.15;;
28519;SDS011;15732;48.534;20.382;2023-02-28T04:44:21;6.35;;;1.45;;
28519;SDS011;15732;48.534;20.382;2023-02-28T04:46:49;2.67;;;1.42;;
28519;SDS011;15732;48.534;20.382;2023-02-28T04:49:16;4.53;;;2.08;;
28519;SDS011;15732;48.534;20.382;2023-02-28T04:51:47;3.40;;;1.13;;
28519;SDS011;15732;48.534;20.382;2023-02-28T04:54:15;3.47;;;1.27;;
28519;SDS011;15732;48.534;20.382;2023-02-28T04:56:43;5.00;;;1.67;;
28519;SDS011;15732;48.534;20.382;2023-02-28T04:59:11;4.00;;;1.88;;
28519;SDS011;15732;48.534;20.382;2023-02-28T05:01:38;2.97;;;2.10;;
28519;SDS011;15732;48.534;20.382;2023-02-28T05:04:09;5.65;;;1.63;;
28519;SDS011;15732;48.534;20.382;2023-02-28T05:06:37;4.63;;;1.75;;
28519;SDS011;15732;48.534;20.382;2023-02-28T05:09:04;3.53;;;1.58;;
28519;SDS011;15732;48.534;20.382;2023-02-28T05:11:32;3.10;;;1.35;;
28519;SDS011;15732;48.534;20.382;2023-02-28T05:14:01;2.08;;;1.40;;
28519;SDS011;15732;48.534;20.382;2023-02-28T05:16:32;4.55;;;1.48;;
28519;SDS011;15732;48.534;20.382;2023-02-28T05:19:00;2.63;;;1.30;;
28519;SDS011;15732;48.534;20.382;2023-02-28T05:21:31;3.22;;;1.90;;
28519;SDS011;15732;48.534;20.382;2023-02-28T05:24:06;3.33;;;1.33;;
28519;SDS011;15732;48.534;20.382;2023-02-28T05:26:36;7.40;;;1.73;;
28519;SDS011;15732;48.534;20.382;2023-02-28T05:29:08;5.40;;;1.38;;
28519;SDS011;15732;48.534;20.382;2023-02-28T05:31:36;3.00;;;1.10;;
28519;SDS011;15732;48.534;20.382;2023-02-28T05:34:03;4.13;;;1.95;;
28519;SDS011;15732;48.534;20.382;2023-02-28T05:36:30;4.90;;;1.67;;
28519;SDS011;15732;48.534;20.382;2023-02-28T05:38:58;7.80;;;1.85;;
28519;SDS011;15732;48.534;20.382;2023-02-28T05:41:25;3.35;;;1.50;;
28519;SDS011;15732;48.534;20.382;2023-02-28T05:43:52;3.33;;;1.58;;
28519;SDS011;15732;48.534;20.382;2023-02-28T05:46:23;3.15;;;1.70;;
28519;SDS011;15732;48.534;20.382;2023-02-28T05:48:51;2.85;;;1.38;;
28519;SDS011;15732;48.534;20.382;2023-02-28T05:51:24;6.20;;;1.95;;
28519;SDS011;15732;48.534;20.382;2023-02-28T05:53:51;2.85;;;1.17;;
28519;SDS011;15732;48.534;20.382;2023-02-28T05:56:18;5.10;;;1.63;;
28519;SDS011;15732;48.534;20.382;2023-02-28T05:58:46;3.55;;;1.27;;
28519;SDS011;15732;48.534;20.382;2023-02-28T06:01:46;4.40;;;1.83;;
28519;SDS011;15732;48.534;20.382;2023-02-28T06:04:17;3.05;;;1.63;;
28519;SDS011;15732;48.534;20.382;2023-02-28T06:06:45;7.03;;;2.03;;
28519;SDS011;15732;48.534;20.382;2023-02-28T06:09:13;5.25;;;1.90;;
28519;SDS011;15732;48.534;20.382;2023-02-28T06:11:44;5.13;;;2.00;;
28519;SDS011;15732;48.534;20.382;2023-02-28T06:14:18;4.53;;;1.73;;
28519;SDS011;15732;48.534;20.382;2023-02-28T06:16:46;4.72;;;1.75;;
28519;SDS011;15732;48.534;20.382;2023-02-28T06:19:13;4.28;;;1.55;;
28519;SDS011;15732;48.534;20.382;2023-02-28T06:21:41;2.20;;;1.23;;
28519;SDS011;15732;48.534;20.382;2023-02-28T06:24:08;4.00;;;1.70;;
28519;SDS011;15732;48.534;20.382;2023-02-28T06:26:38;5.63;;;1.65;;
28519;SDS011;15732;48.534;20.382;2023-02-28T06:29:05;5.22;;;1.55;;
28519;SDS011;15732;48.534;20.382;2023-02-28T06:31:33;5.97;;;2.00;;
28519;SDS011;15732;48.534;20.382;2023-02-28T06:34:04;2.95;;;1.30;;
28519;SDS011;15732;48.534;20.382;2023-02-28T06:36:31;4.78;;;1.85;;
28519;SDS011;15732;48.534;20.382;2023-02-28T06:38:59;5.22;;;2.30;;
28519;SDS011;15732;48.534;20.382;2023-02-28T06:41:26;2.63;;;1.38;;
28519;SDS011;15732;48.534;20.382;2023-02-28T06:43:52;4.82;;;1.40;;
28519;SDS011;15732;48.534;20.382;2023-02-28T06:46:19;1.83;;;1.02;;
28519;SDS011;15732;48.534;20.382;2023-02-28T06:48:46;6.53;;;2.05;;
28519;SDS011;15732;48.534;20.382;2023-02-28T06:51:17;6.78;;;1.63;;
28519;SDS011;15732;48.534;20.382;2023-02-28T06:53:46;3.30;;;1.70;;
28519;SDS011;15732;48.534;20.382;2023-02-28T06:56:17;5.80;;;2.10;;
28519;SDS011;15732;48.534;20.382;2023-02-28T06:58:46;9.85;;;2.50;;
28519;SDS011;15732;48.534;20.382;2023-02-28T07:01:15;4.22;;;1.38;;
28519;SDS011;15732;48.534;20.382;2023-02-28T07:03:47;7.93;;;2.10;;
28519;SDS011;15732;48.534;20.382;2023-02-28T07:06:18;5.00;;;1.42;;
28519;SDS011;15732;48.534;20.382;2023-02-28T07:08:46;4.43;;;1.80;;
28519;SDS011;15732;48.534;20.382;2023-02-28T07:11:13;6.18;;;2.25;;
28519;SDS011;15732;48.534;20.382;2023-02-28T07:13:41;3.28;;;1.52;;
28519;SDS011;15732;48.534;20.382;2023-02-28T07:16:09;4.00;;;1.63;;
28519;SDS011;15732;48.534;20.382;2023-02-28T07:18:37;3.85;;;1.55;;
28519;SDS011;15732;48.534;20.382;2023-02-28T07:21:05;1.40;;;0.90;;
28519;SDS011;15732;48.534;20.382;2023-02-28T07:23:34;2.47;;;1.48;;
28519;SDS011;15732;48.534;20.382;2023-02-28T07:26:01;4.85;;;1.75;;
28519;SDS011;15732;48.534;20.382;2023-02-28T07:28:29;4.30;;;1.73;;
28519;SDS011;15732;48.534;20.382;2023-02-28T07:30:56;5.97;;;1.90;;
28519;SDS011;15732;48.534;20.382;2023-02-28T07:33:23;2.95;;;1.20;;
28519;SDS011;15732;48.534;20.382;2023-02-28T07:35:59;4.30;;;1.98;;
28519;SDS011;15732;48.534;20.382;2023-02-28T07:38:30;2.00;;;1.30;;
28519;SDS011;15732;48.534;20.382;2023-02-28T07:40:59;3.47;;;1.10;;
28519;SDS011;15732;48.534;20.382;2023-02-28T07:43:32;2.00;;;0.93;;
28519;SDS011;15732;48.534;20.382;2023-02-28T07:46:04;2.83;;;1.13;;
28519;SDS011;15732;48.534;20.382;2023-02-28T07:48:33;3.33;;;1.23;;
28519;SDS011;15732;48.534;20.382;2023-02-28T07:51:01;2.00;;;1.10;;
28519;SDS011;15732;48.534;20.382;2023-02-28T07:53:28;6.07;;;2.38;;
28519;SDS011;15732;48.534;20.382;2023-02-28T07:55:56;8.88;;;2.78;;
28519;SDS011;15732;48.534;20.382;2023-02-28T07:58:23;6.07;;;1.70;;
28519;SDS011;15732;48.534;20.382;2023-02-28T08:00:52;5.55;;;1.55;;
28519;SDS011;15732;48.534;20.382;2023-02-28T08:03:20;3.00;;;1.30;;
28519;SDS011;15732;48.534;20.382;2023-02-28T08:05:48;2.70;;;1.48;;
28519;SDS011;15732;48.534;20.382;2023-02-28T08:08:21;3.35;;;1.40;;
28519;SDS011;15732;48.534;20.382;2023-02-28T08:10:48;2.25;;;1.42;;
28519;SDS011;15732;48.534;20.382;2023-02-28T08:13:19;4.30;;;1.73;;
28519;SDS011;15732;48.534;20.382;2023-02-28T08:15:46;4.38;;;1.90;;
28519;SDS011;15732;48.534;20.382;2023-02-28T08:18:14;4.15;;;1.55;;
28519;SDS011;15732;48.534;20.382;2023-02-28T08:20:45;5.80;;;2.75;;
28519;SDS011;15732;48.534;20.382;2023-02-28T08:23:13;4.20;;;1.60;;
28519;SDS011;15732;48.534;20.382;2023-02-28T08:25:40;6.50;;;1.63;;
28519;SDS011;15732;48.534;20.382;2023-02-28T08:28:06;4.00;;;1.52;;
28519;SDS011;15732;48.534;20.382;2023-02-28T08:30:34;3.08;;;1.65;;
28519;SDS011;15732;48.534;20.382;2023-02-28T08:33:06;3.90;;;1.60;;
28519;SDS011;15732;48.534;20.382;2023-02-28T08:35:35;4.47;;;1.73;;
28519;SDS011;15732;48.534;20.382;2023-02-28T08:40:29;2.65;;;1.17;;
28519;SDS011;15732;48.534;20.382;2023-02-28T08:42:56;3.25;;;1.60;;
28519;SDS011;15732;48.534;20.382;2023-02-28T08:45:28;4.28;;;1.90;;
28519;SDS011;15732;48.534;20.382;2023-02-28T08:47:59;2.38;;;1.15;;
28519;SDS011;15732;48.534;20.382;2023-02-28T08:50:26;9.18;;;1.80;;
28519;SDS011;15732;48.534;20.382;2023-02-28T08:52:54;3.08;;;1.58;;
28519;SDS011;15732;48.534;20.382;2023-02-28T08:55:25;5.65;;;1.90;;
28519;SDS011;15732;48.534;20.382;2023-02-28T08:57:52;3.20;;;1.15;;
28519;SDS011;15732;48.534;20.382;2023-02-28T09:00:20;3.70;;;1.48;;
28519;SDS011;15732;48.534;20.382;2023-02-28T09:02:53;4.60;;;1.63;;
28519;SDS011;15732;48.534;20.382;2023-02-28T09:05:20;4.13;;;1.60;;
28519;SDS011;15732;48.534;20.382;2023-02-28T09:07:49;7.75;;;2.85;;
28519;SDS011;15732;48.534;20.382;2023-02-28T09:10:16;3.70;;;1.40;;
28519;SDS011;15732;48.534;20.382;2023-02-28T09:12:44;4.50;;;1.88;;
28519;SDS011;15732;48.534;20.382;2023-02-28T09:15:12;3.38;;;1.48;;
28519;SDS011;15732;48.534;20.382;2023-02-28T09:17:40;4.35;;;1.25;;
28519;SDS011;15732;48.534;20.382;2023-02-28T09:20:08;4.47;;;1.15;;
28519;SDS011;15732;48.534;20.382;2023-02-28T09:22:38;4.25;;;1.85;;
28519;SDS011;15732;48.534;20.382;2023-02-28T09:25:06;4.88;;;1.30;;
28519;SDS011;15732;48.534;20.382;2023-02-28T09:27:34;2.28;;;1.30;;
28519;SDS011;15732;48.534;20.382;2023-02-28T09:32:30;4.15;;;1.98;;
28519;SDS011;15732;48.534;20.382;2023-02-28T09:35:02;2.53;;;1.20;;
28519;SDS011;15732;48.534;20.382;2023-02-28T09:37:31;5.40;;;1.65;;
28519;SDS011;15732;48.534;20.382;2023-02-28T09:39:58;5.20;;;1.27;;
28519;SDS011;15732;48.534;20.382;2023-02-28T09:42:32;3.28;;;1.48;;
28519;SDS011;15732;48.534;20.382;2023-02-28T09:45:00;8.27;;;1.83;;
28519;SDS011;15732;48.534;20.382;2023-02-28T09:47:40;3.50;;;1.70;;
28519;SDS011;15732;48.534;20.382;2023-02-28T09:52:52;1.85;;;0.95;;
28519;SDS011;15732;48.534;20.382;2023-02-28T09:57:47;5.32;;;1.70;;
28519;SDS011;15732;48.534;20.382;2023-02-28T10:00:24;5.85;;;1.92;;
28519;SDS011;15732;48.534;20.382;2023-02-28T10:03:09;2.90;;;1.27;;
28519;SDS011;15732;48.534;20.382;2023-02-28T10:08:56;5.10;;;1.73;;
28519;SDS011;15732;48.534;20.382;2023-02-28T10:11:35;2.42;;;1.15;;
28519;SDS011;15732;48.534;20.382;2023-02-28T10:14:05;2.67;;;1.83;;
28519;SDS011;15732;48.534;20.382;2023-02-28T10:16:40;4.68;;;1.45;;
28519;SDS011;15732;48.534;20.382;2023-02-28T10:22:14;4.30;;;1.80;;
28519;SDS011;15732;48.534;20.382;2023-02-28T10:24:48;3.08;;;1.27;;
28519;SDS011;15732;48.534;20.382;2023-02-28T10:27:25;6.00;;;1.70;;
28519;SDS011;15732;48.534;20.382;2023-02-28T10:29:58;1.58;;;1.00;;
28519;SDS011;15732;48.534;20.382;2023-02-28T10:32:31;2.45;;;1.20;;
28519;SDS011;15732;48.534;20.382;2023-02-28T10:37:59;3.20;;;1.33;;
28519;SDS011;15732;48.534;20.382;2023-02-28T10:40:34;2.35;;;1.00;;
28519;SDS011;15732;48.534;20.382;2023-02-28T10:45:38;4.63;;;1.63;;
28519;SDS011;15732;48.534;20.382;2023-02-28T10:53:16;3.10;;;1.08;;
28519;SDS011;15732;48.534;20.382;2023-02-28T10:56:04;6.55;;;1.60;;
28519;SDS011;15732;48.534;20.382;2023-02-28T11:01:21;3.60;;;1.05;;
28519;SDS011;15732;48.534;20.382;2023-02-28T11:06:44;2.25;;;1.05;;
28519;SDS011;15732;48.534;20.382;2023-02-28T11:09:22;1.52;;;0.80;;
28519;SDS011;15732;48.534;20.382;2023-02-28T11:12:05;4.47;;;1.63;;
28519;SDS011;15732;48.534;20.382;2023-02-28T11:14:51;2.30;;;1.17;;
28519;SDS011;15732;48.534;20.382;2023-02-28T11:17:21;4.25;;;1.05;;
28519;SDS011;15732;48.534;20.382;2023-02-28T11:19:56;2.22;;;0.95;;
28519;SDS011;15732;48.534;20.382;2023-02-28T11:22:36;2.53;;;1.58;;
28519;SDS011;15732;48.534;20.382;2023-02-28T11:25:09;2.92;;;1.20;;
28519;SDS011;15732;48.534;20.382;2023-02-28T11:30:26;2.40;;;1.30;;
28519;SDS011;15732;48.534;20.382;2023-02-28T11:38:51;1.83;;;0.85;;
28519;SDS011;15732;48.534;20.382;2023-02-28T11:47:30;3.42;;;1.45;;
28519;SDS011;15732;48.534;20.382;2023-02-28T11:50:36;2.00;;;1.10;;
28519;SDS011;15732;48.534;20.382;2023-02-28T12:04:01;1.30;;;0.73;;
28519;SDS011;15732;48.534;20.382;2023-02-28T12:07:09;2.50;;;1.08;;
28519;SDS011;15732;48.534;20.382;2023-02-28T12:10:00;1.10;;;0.60;;
28519;SDS011;15732;48.534;20.382;2023-02-28T12:20:57;7.55;;;1.45;;
28519;SDS011;15732;48.534;20.382;2023-02-28T12:23:59;2.28;;;1.00;;
28519;SDS011;15732;48.534;20.382;2023-02-28T12:29:33;1.33;;;0.65;;
28519;SDS011;15732;48.534;20.382;2023-02-28T12:32:16;3.40;;;0.88;;
28519;SDS011;15732;48.534;20.382;2023-02-28T12:34:58;2.97;;;1.00;;
28519;SDS011;15732;48.534;20.382;2023-02-28T12:37:55;1.67;;;0.85;;
28519;SDS011;15732;48.534;20.382;2023-02-28T12:40:42;1.70;;;1.13;;
28519;SDS011;15732;48.534;20.382;2023-02-28T12:43:40;1.95;;;0.80;;
28519;SDS011;15732;48.534;20.382;2023-02-28T12:46:17;1.27;;;0.80;;
28519;SDS011;15732;48.534;20.382;2023-02-28T12:49:45;2.58;;;0.98;;
28519;SDS011;15732;48.534;20.382;2023-02-28T12:52:04;1.98;;;1.05;;
28519;SDS011;15732;48.534;20.382;2023-02-28T12:54:36;5.65;;;2.05;;
28519;SDS011;15732;48.534;20.382;2023-02-28T13:00:16;1.98;;;0.93;;
28519;SDS011;15732;48.534;20.382;2023-02-28T13:11:22;4.95;;;1.20;;
28519;SDS011;15732;48.534;20.382;2023-02-28T13:13:57;2.30;;;0.80;;
28519;SDS011;15732;48.534;20.382;2023-02-28T13:16:25;1.77;;;0.80;;
28519;SDS011;15732;48.534;20.382;2023-02-28T13:19:07;2.10;;;0.95;;
28519;SDS011;15732;48.534;20.382;2023-02-28T13:21:41;2.30;;;0.60;;
28519;SDS011;15732;48.534;20.382;2023-02-28T13:24:11;1.98;;;0.70;;
28519;SDS011;15732;48.534;20.382;2023-02-28T13:27:10;3.53;;;0.80;;
28519;SDS011;15732;48.534;20.382;2023-02-28T13:29:53;2.67;;;0.60;;
28519;SDS011;15732;48.534;20.382;2023-02-28T13:32:28;1.67;;;0.80;;
28519;SDS011;15732;48.534;20.382;2023-02-28T13:37:32;1.48;;;0.90;;
28519;SDS011;15732;48.534;20.382;2023-02-28T13:42:46;1.33;;;0.80;;
28519;SDS011;15732;48.534;20.382;2023-02-28T13:45:27;3.10;;;1.25;;
28519;SDS011;15732;48.534;20.382;2023-02-28T13:48:29;4.10;;;0.80;;
28519;SDS011;15732;48.534;20.382;2023-02-28T13:51:00;2.60;;;1.20;;
28519;SDS011;15732;48.534;20.382;2023-02-28T13:54:15;2.10;;;1.02;;
28519;SDS011;15732;48.534;20.382;2023-02-28T14:00:02;1.90;;;0.90;;
28519;SDS011;15732;48.534;20.382;2023-02-28T14:05:37;1.08;;;0.60;;
28519;SDS011;15732;48.534;20.382;2023-02-28T14:08:12;5.60;;;1.75;;
28519;SDS011;15732;48.534;20.382;2023-02-28T14:10:48;2.40;;;1.20;;
28519;SDS011;15732;48.534;20.382;2023-02-28T14:16:54;2.35;;;1.08;;
28519;SDS011;15732;48.534;20.382;2023-02-28T14:39:21;1.90;;;1.20;;
28519;SDS011;15732;48.534;20.382;2023-02-28T14:41:53;4.85;;;1.90;;
28519;SDS011;15732;48.534;20.382;2023-02-28T14:44:24;2.20;;;1.23;;
28519;SDS011;15732;48.534;20.382;2023-02-28T14:47:02;4.18;;;0.93;;
28519;SDS011;15732;48.534;20.382;2023-02-28T14:49:36;2.85;;;1.27;;
28519;SDS011;15732;48.534;20.382;2023-02-28T14:54:57;2.92;;;0.82;;
28519;SDS011;15732;48.534;20.382;2023-02-28T14:57:28;3.55;;;1.40;;
28519;SDS011;15732;48.534;20.382;2023-02-28T14:59:58;4.25;;;1.08;;
28519;SDS011;15732;48.534;20.382;2023-02-28T15:02:44;2.90;;;1.20;;
28519;SDS011;15732;48.534;20.382;2023-02-28T15:07:47;1.67;;;1.13;;
28519;SDS011;15732;48.534;20.382;2023-02-28T15:10:27;2.85;;;1.30;;
28519;SDS011;15732;48.534;20.382;2023-02-28T15:13:30;3.15;;;0.98;;
28519;SDS011;15732;48.534;20.382;2023-02-28T15:15:53;5.20;;;1.67;;
28519;SDS011;15732;48.534;20.382;2023-02-28T15:18:43;1.38;;;0.93;;
28519;SDS011;15732;48.534;20.382;2023-02-28T15:21:19;5.78;;;2.05;;
28519;SDS011;15732;48.534;20.382;2023-02-28T15:24:06;4.25;;;1.58;;
28519;SDS011;15732;48.534;20.382;2023-02-28T15:26:42;2.75;;;1.38;;
28519;SDS011;15732;48.534;20.382;2023-02-28T15:31:43;3.58;;;1.30;;
28519;SDS011;15732;48.534;20.382;2023-02-28T15:34:24;3.42;;;1.33;;
28519;SDS011;15732;48.534;20.382;2023-02-28T15:40:25;4.40;;;0.98;;
28519;SDS011;15732;48.534;20.382;2023-02-28T15:43:13;2.63;;;1.33;;
28519;SDS011;15732;48.534;20.382;2023-02-28T15:45:52;2.10;;;1.15;;
28519;SDS011;15732;48.534;20.382;2023-02-28T15:51:06;2.25;;;1.20;;
28519;SDS011;15732;48.534;20.382;2023-02-28T15:56:20;5.10;;;1.98;;
28519;SDS011;15732;48.534;20.382;2023-02-28T15:58:59;3.47;;;1.40;;
28519;SDS011;15732;48.534;20.382;2023-02-28T16:01:33;3.90;;;1.13;;
28519;SDS011;15732;48.534;20.382;2023-02-28T16:06:41;4.10;;;1.55;;
28519;SDS011;15732;48.534;20.382;2023-02-28T16:09:11;2.90;;;1.42;;
28519;SDS011;15732;48.534;20.382;2023-02-28T16:11:48;2.50;;;0.95;;
28519;SDS011;15732;48.534;20.382;2023-02-28T16:14:22;3.50;;;1.30;;
28519;SDS011;15732;48.534;20.382;2023-02-28T16:16:54;3.55;;;1.65;;
28519;SDS011;15732;48.534;20.382;2023-02-28T16:21:49;6.68;;;2.60;;
28519;SDS011;15732;48.534;20.382;2023-02-28T16:24:17;11.68;;;4.47;;
28519;SDS011;15732;48.534;20.382;2023-02-28T16:26:45;12.10;;;4.70;;
28519;SDS011;15732;48.534;20.382;2023-02-28T16:29:19;6.65;;;2.35;;
28519;SDS011;15732;48.534;20.382;2023-02-28T16:32:03;6.00;;;1.95;;
28519;SDS011;15732;48.534;20.382;2023-02-28T16:34:31;14.70;;;5.57;;
28519;SDS011;15732;48.534;20.382;2023-02-28T16:36:58;17.42;;;3.83;;
28519;SDS011;15732;48.534;20.382;2023-02-28T16:39:26;20.65;;;7.18;;
28519;SDS011;15732;48.534;20.382;2023-02-28T16:41:53;44.13;;;13.77;;
28519;SDS011;15732;48.534;20.382;2023-02-28T16:44:27;92.90;;;39.10;;
28519;SDS011;15732;48.534;20.382;2023-02-28T16:47:02;104.72;;;39.45;;
28519;SDS011;15732;48.534;20.382;2023-02-28T16:49:30;58.05;;;19.42;;
28519;SDS011;15732;48.534;20.382;2023-02-28T16:51:57;22.83;;;11.23;;
28519;SDS011;15732;48.534;20.382;2023-02-28T16:54:24;30.25;;;10.95;;
28519;SDS011;15732;48.534;20.382;2023-02-28T16:56:50;29.27;;;13.63;;
28519;SDS011;15732;48.534;20.382;2023-02-28T16:59:19;29.52;;;12.27;;
28519;SDS011;15732;48.534;20.382;2023-02-28T17:01:50;26.15;;;5.72;;
28519;SDS011;15732;48.534;20.382;2023-02-28T17:04:21;16.88;;;6.75;;
28519;SDS011;15732;48.534;20.382;2023-02-28T17:06:48;13.57;;;4.25;;
28519;SDS011;15732;48.534;20.382;2023-02-28T17:09:20;16.70;;;6.65;;
28519;SDS011;15732;48.534;20.382;2023-02-28T17:11:54;14.52;;;5.78;;
28519;SDS011;15732;48.534;20.382;2023-02-28T17:14:22;29.98;;;8.68;;
28519;SDS011;15732;48.534;20.382;2023-02-28T17:16:50;34.38;;;11.00;;
28519;SDS011;15732;48.534;20.382;2023-02-28T17:19:20;48.95;;;19.42;;
28519;SDS011;15732;48.534;20.382;2023-02-28T17:21:47;56.63;;;19.88;;
28519;SDS011;15732;48.534;20.382;2023-02-28T17:24:15;41.10;;;14.70;;
28519;SDS011;15732;48.534;20.382;2023-02-28T17:26:42;29.48;;;11.90;;
28519;SDS011;15732;48.534;20.382;2023-02-28T17:29:12;29.58;;;11.80;;
28519;SDS011;15732;48.534;20.382;2023-02-28T17:31:45;64.05;;;20.42;;
28519;SDS011;15732;48.534;20.382;2023-02-28T17:34:12;64.53;;;21.58;;
28519;SDS011;15732;48.534;20.382;2023-02-28T17:36:44;73.28;;;29.38;;
28519;SDS011;15732;48.534;20.382;2023-02-28T17:39:12;68.13;;;29.67;;
28519;SDS011;15732;48.534;20.382;2023-02-28T17:41:40;79.77;;;39.23;;
28519;SDS011;15732;48.534;20.382;2023-02-28T17:44:08;65.17;;;20.43;;
28519;SDS011;15732;48.534;20.382;2023-02-28T17:46:36;68.20;;;27.60;;
28519;SDS011;15732;48.534;20.382;2023-02-28T17:49:02;88.45;;;30.80;;
28519;SDS011;15732;48.534;20.382;2023-02-28T17:51:29;89.63;;;31.38;;
28519;SDS011;15732;48.534;20.382;2023-02-28T17:54:01;83.05;;;32.28;;
28519;SDS011;15732;48.534;20.382;2023-02-28T17:56:28;111.30;;;38.08;;
28519;SDS011;15732;48.534;20.382;2023-02-28T17:58:56;89.30;;;33.75;;